Terminal Aerodrome Forecast
Issued by NWS Louisville, KY

Home | Current Version | Previous Version | Text Only | Print | Product List | Glossary On
Versions: 1 2 3 4 5 6 7 8 9 10 11 12 13 14 15 16 17 18 19 20 21
206
FTUS43 KLMK 191120
TAFSDF
TAF
KSDF 191120Z 1912/2018 29011G18KT P6SM OVC025
     FM192100 29010KT P6SM BKN035
     FM192300 VRB03KT P6SM SKC
     FM201300 19006KT P6SM SCT250=

USA.gov is the U.S. government's official web portal to all federal, state and local government web resources and services.